sensor_id;sensor_type;location;lat;lon;timestamp;P1;durP1;ratioP1;P2;durP2;ratioP2
21567;SDS011;10944;42.590;12.630;2023-02-01T00:01:39;20.77;;;10.53;;
21567;SDS011;10944;42.590;12.630;2023-02-01T00:04:05;18.23;;;9.80;;
21567;SDS011;10944;42.590;12.630;2023-02-01T00:06:30;19.97;;;10.00;;
21567;SDS011;10944;42.590;12.630;2023-02-01T00:08:56;18.43;;;10.30;;
21567;SDS011;10944;42.590;12.630;2023-02-01T00:11:22;22.03;;;10.70;;
21567;SDS011;10944;42.590;12.630;2023-02-01T00:13:49;22.50;;;11.30;;
21567;SDS011;10944;42.590;12.630;2023-02-01T00:16:15;18.67;;;10.37;;
21567;SDS011;10944;42.590;12.630;2023-02-01T00:18:47;17.90;;;9.80;;
21567;SDS011;10944;42.590;12.630;2023-02-01T00:21:15;18.70;;;9.60;;
21567;SDS011;10944;42.590;12.630;2023-02-01T00:23:43;17.07;;;9.00;;
21567;SDS011;10944;42.590;12.630;2023-02-01T00:26:50;17.20;;;8.67;;
21567;SDS011;10944;42.590;12.630;2023-02-01T00:28:59;15.70;;;7.73;;
21567;SDS011;10944;42.590;12.630;2023-02-01T00:31:25;12.03;;;7.17;;
21567;SDS011;10944;42.590;12.630;2023-02-01T00:33:51;12.00;;;6.53;;
21567;SDS011;10944;42.590;12.630;2023-02-01T00:36:17;19.50;;;6.70;;
21567;SDS011;10944;42.590;12.630;2023-02-01T00:38:43;13.00;;;6.23;;
21567;SDS011;10944;42.590;12.630;2023-02-01T00:41:13;11.67;;;6.03;;
21567;SDS011;10944;42.590;12.630;2023-02-01T00:43:40;16.43;;;7.00;;
21567;SDS011;10944;42.590;12.630;2023-02-01T00:46:06;15.07;;;7.07;;
21567;SDS011;10944;42.590;12.630;2023-02-01T00:48:32;14.30;;;7.23;;
21567;SDS011;10944;42.590;12.630;2023-02-01T00:50:58;10.30;;;5.77;;
21567;SDS011;10944;42.590;12.630;2023-02-01T00:53:25;11.93;;;5.93;;
21567;SDS011;10944;42.590;12.630;2023-02-01T00:55:51;10.37;;;5.47;;
21567;SDS011;10944;42.590;12.630;2023-02-01T00:58:16;9.83;;;5.23;;
21567;SDS011;10944;42.590;12.630;2023-02-01T01:00:42;9.17;;;4.97;;
21567;SDS011;10944;42.590;12.630;2023-02-01T01:03:08;10.93;;;5.07;;
21567;SDS011;10944;42.590;12.630;2023-02-01T01:05:45;9.53;;;4.97;;
21567;SDS011;10944;42.590;12.630;2023-02-01T01:08:12;12.67;;;5.20;;
21567;SDS011;10944;42.590;12.630;2023-02-01T01:10:38;8.93;;;5.20;;
21567;SDS011;10944;42.590;12.630;2023-02-01T01:13:05;11.07;;;5.47;;
21567;SDS011;10944;42.590;12.630;2023-02-01T01:15:35;10.90;;;5.50;;
21567;SDS011;10944;42.590;12.630;2023-02-01T01:18:01;9.20;;;5.53;;
21567;SDS011;10944;42.590;12.630;2023-02-01T01:20:28;10.47;;;5.50;;
21567;SDS011;10944;42.590;12.630;2023-02-01T01:22:54;10.63;;;5.23;;
21567;SDS011;10944;42.590;12.630;2023-02-01T01:25:20;10.83;;;5.60;;
21567;SDS011;10944;42.590;12.630;2023-02-01T01:27:46;12.97;;;5.80;;
21567;SDS011;10944;42.590;12.630;2023-02-01T01:30:12;11.27;;;5.57;;
21567;SDS011;10944;42.590;12.630;2023-02-01T01:32:38;9.80;;;5.13;;
21567;SDS011;10944;42.590;12.630;2023-02-01T01:35:04;10.13;;;5.00;;
21567;SDS011;10944;42.590;12.630;2023-02-01T01:37:31;11.33;;;5.67;;
21567;SDS011;10944;42.590;12.630;2023-02-01T01:39:56;11.27;;;4.83;;
21567;SDS011;10944;42.590;12.630;2023-02-01T01:42:22;11.43;;;5.60;;
21567;SDS011;10944;42.590;12.630;2023-02-01T01:47:30;10.73;;;5.43;;
21567;SDS011;10944;42.590;12.630;2023-02-01T01:50:05;16.00;;;7.70;;
21567;SDS011;10944;42.590;12.630;2023-02-01T01:52:34;18.33;;;9.60;;
21567;SDS011;10944;42.590;12.630;2023-02-01T01:55:01;22.60;;;11.47;;
21567;SDS011;10944;42.590;12.630;2023-02-01T01:57:27;27.30;;;13.60;;
21567;SDS011;10944;42.590;12.630;2023-02-01T02:00:00;23.30;;;12.73;;
21567;SDS011;10944;42.590;12.630;2023-02-01T02:02:30;22.67;;;12.37;;
21567;SDS011;10944;42.590;12.630;2023-02-01T02:04:56;20.33;;;11.73;;
21567;SDS011;10944;42.590;12.630;2023-02-01T02:07:23;21.43;;;12.27;;
21567;SDS011;10944;42.590;12.630;2023-02-01T02:09:53;23.73;;;11.93;;
21567;SDS011;10944;42.590;12.630;2023-02-01T02:12:19;25.87;;;12.50;;
21567;SDS011;10944;42.590;12.630;2023-02-01T02:14:45;22.13;;;10.97;;
21567;SDS011;10944;42.590;12.630;2023-02-01T02:17:14;19.37;;;9.27;;
21567;SDS011;10944;42.590;12.630;2023-02-01T02:35:01;12.27;;;5.60;;
21567;SDS011;10944;42.590;12.630;2023-02-01T02:37:39;11.57;;;6.33;;
21567;SDS011;10944;42.590;12.630;2023-02-01T02:40:29;12.90;;;7.27;;
21567;SDS011;10944;42.590;12.630;2023-02-01T02:43:10;12.30;;;6.60;;
21567;SDS011;10944;42.590;12.630;2023-02-01T02:46:13;13.77;;;7.40;;
21567;SDS011;10944;42.590;12.630;2023-02-01T02:51:46;18.10;;;7.90;;
21567;SDS011;10944;42.590;12.630;2023-02-01T02:54:36;12.57;;;6.83;;
21567;SDS011;10944;42.590;12.630;2023-02-01T02:57:28;14.13;;;6.93;;
21567;SDS011;10944;42.590;12.630;2023-02-01T03:00:16;11.90;;;7.10;;
21567;SDS011;10944;42.590;12.630;2023-02-01T03:03:03;16.10;;;8.80;;
21567;SDS011;10944;42.590;12.630;2023-02-01T03:05:48;16.57;;;9.90;;
21567;SDS011;10944;42.590;12.630;2023-02-01T03:08:21;20.03;;;9.83;;
21567;SDS011;10944;42.590;12.630;2023-02-01T03:21:41;15.07;;;8.67;;
21567;SDS011;10944;42.590;12.630;2023-02-01T03:24:23;16.07;;;8.30;;
21567;SDS011;10944;42.590;12.630;2023-02-01T03:29:51;18.00;;;9.00;;
21567;SDS011;10944;42.590;12.630;2023-02-01T03:32:42;19.70;;;9.60;;
21567;SDS011;10944;42.590;12.630;2023-02-01T03:35:35;16.10;;;9.60;;
21567;SDS011;10944;42.590;12.630;2023-02-01T03:46:34;13.93;;;7.33;;
21567;SDS011;10944;42.590;12.630;2023-02-01T03:49:26;13.50;;;6.10;;
21567;SDS011;10944;42.590;12.630;2023-02-01T03:51:55;13.97;;;6.50;;
21567;SDS011;10944;42.590;12.630;2023-02-01T03:54:24;10.80;;;5.90;;
21567;SDS011;10944;42.590;12.630;2023-02-01T03:56:52;10.90;;;6.03;;
21567;SDS011;10944;42.590;12.630;2023-02-01T03:59:20;11.67;;;5.20;;
21567;SDS011;10944;42.590;12.630;2023-02-01T04:01:46;10.03;;;5.40;;
21567;SDS011;10944;42.590;12.630;2023-02-01T04:04:12;9.20;;;4.70;;
21567;SDS011;10944;42.590;12.630;2023-02-01T04:06:45;7.73;;;4.10;;
21567;SDS011;10944;42.590;12.630;2023-02-01T04:09:11;8.53;;;4.33;;
21567;SDS011;10944;42.590;12.630;2023-02-01T04:11:37;8.60;;;4.00;;
21567;SDS011;10944;42.590;12.630;2023-02-01T04:14:03;7.70;;;4.20;;
21567;SDS011;10944;42.590;12.630;2023-02-01T04:16:30;8.90;;;4.67;;
21567;SDS011;10944;42.590;12.630;2023-02-01T04:18:58;8.87;;;4.40;;
21567;SDS011;10944;42.590;12.630;2023-02-01T04:21:25;9.57;;;4.70;;
21567;SDS011;10944;42.590;12.630;2023-02-01T04:23:51;7.43;;;4.20;;
21567;SDS011;10944;42.590;12.630;2023-02-01T04:26:17;8.17;;;4.63;;
21567;SDS011;10944;42.590;12.630;2023-02-01T04:28:44;10.20;;;4.70;;
21567;SDS011;10944;42.590;12.630;2023-02-01T04:31:12;8.60;;;4.37;;
21567;SDS011;10944;42.590;12.630;2023-02-01T04:33:39;9.33;;;4.03;;
21567;SDS011;10944;42.590;12.630;2023-02-01T04:36:05;8.60;;;4.00;;
21567;SDS011;10944;42.590;12.630;2023-02-01T04:38:30;7.40;;;4.00;;
21567;SDS011;10944;42.590;12.630;2023-02-01T04:40:57;8.87;;;4.10;;
21567;SDS011;10944;42.590;12.630;2023-02-01T04:43:23;9.77;;;4.60;;
21567;SDS011;10944;42.590;12.630;2023-02-01T04:45:50;10.10;;;4.73;;
21567;SDS011;10944;42.590;12.630;2023-02-01T04:48:16;10.07;;;4.70;;
21567;SDS011;10944;42.590;12.630;2023-02-01T04:50:44;8.50;;;4.53;;
21567;SDS011;10944;42.590;12.630;2023-02-01T04:53:16;9.03;;;4.60;;
21567;SDS011;10944;42.590;12.630;2023-02-01T04:55:42;8.63;;;4.60;;
21567;SDS011;10944;42.590;12.630;2023-02-01T04:58:09;8.63;;;4.60;;
21567;SDS011;10944;42.590;12.630;2023-02-01T05:00:35;9.20;;;4.50;;
21567;SDS011;10944;42.590;12.630;2023-02-01T05:03:01;9.47;;;4.73;;
21567;SDS011;10944;42.590;12.630;2023-02-01T05:05:28;9.77;;;5.60;;
21567;SDS011;10944;42.590;12.630;2023-02-01T05:07:54;13.57;;;6.57;;
21567;SDS011;10944;42.590;12.630;2023-02-01T05:10:20;9.80;;;5.40;;
21567;SDS011;10944;42.590;12.630;2023-02-01T05:12:46;13.60;;;6.30;;
21567;SDS011;10944;42.590;12.630;2023-02-01T05:15:30;10.70;;;5.53;;
21567;SDS011;10944;42.590;12.630;2023-02-01T05:17:57;11.50;;;6.30;;
21567;SDS011;10944;42.590;12.630;2023-02-01T05:20:23;12.90;;;7.73;;
21567;SDS011;10944;42.590;12.630;2023-02-01T05:22:49;14.23;;;7.73;;
21567;SDS011;10944;42.590;12.630;2023-02-01T05:25:14;12.33;;;6.57;;
21567;SDS011;10944;42.590;12.630;2023-02-01T05:27:40;10.57;;;5.20;;
21567;SDS011;10944;42.590;12.630;2023-02-01T05:30:07;11.67;;;5.17;;
21567;SDS011;10944;42.590;12.630;2023-02-01T05:32:34;10.30;;;5.00;;
21567;SDS011;10944;42.590;12.630;2023-02-01T05:34:59;10.47;;;4.70;;
21567;SDS011;10944;42.590;12.630;2023-02-01T05:37:25;13.13;;;4.73;;
21567;SDS011;10944;42.590;12.630;2023-02-01T05:39:51;9.87;;;4.77;;
21567;SDS011;10944;42.590;12.630;2023-02-01T05:42:17;11.60;;;5.57;;
21567;SDS011;10944;42.590;12.630;2023-02-01T05:44:42;10.50;;;5.33;;
21567;SDS011;10944;42.590;12.630;2023-02-01T05:47:08;11.13;;;5.13;;
21567;SDS011;10944;42.590;12.630;2023-02-01T05:49:34;11.03;;;5.60;;
21567;SDS011;10944;42.590;12.630;2023-02-01T05:52:00;12.53;;;5.50;;
21567;SDS011;10944;42.590;12.630;2023-02-01T05:54:26;10.07;;;4.80;;
21567;SDS011;10944;42.590;12.630;2023-02-01T05:56:52;10.17;;;5.17;;
21567;SDS011;10944;42.590;12.630;2023-02-01T05:59:18;10.67;;;5.40;;
21567;SDS011;10944;42.590;12.630;2023-02-01T06:01:43;11.47;;;5.40;;
21567;SDS011;10944;42.590;12.630;2023-02-01T06:04:09;12.53;;;6.27;;
21567;SDS011;10944;42.590;12.630;2023-02-01T06:06:35;11.83;;;6.00;;
21567;SDS011;10944;42.590;12.630;2023-02-01T06:09:02;12.17;;;5.67;;
21567;SDS011;10944;42.590;12.630;2023-02-01T06:11:28;11.60;;;5.50;;
21567;SDS011;10944;42.590;12.630;2023-02-01T06:13:54;8.27;;;5.00;;
21567;SDS011;10944;42.590;12.630;2023-02-01T06:16:20;9.83;;;5.23;;
21567;SDS011;10944;42.590;12.630;2023-02-01T06:18:47;9.00;;;4.93;;
21567;SDS011;10944;42.590;12.630;2023-02-01T06:21:13;10.03;;;4.50;;
21567;SDS011;10944;42.590;12.630;2023-02-01T06:23:40;10.33;;;5.47;;
21567;SDS011;10944;42.590;12.630;2023-02-01T06:26:06;10.57;;;4.83;;
21567;SDS011;10944;42.590;12.630;2023-02-01T06:28:33;10.23;;;5.40;;
21567;SDS011;10944;42.590;12.630;2023-02-01T06:31:03;9.17;;;5.03;;
21567;SDS011;10944;42.590;12.630;2023-02-01T06:33:35;12.23;;;6.13;;
21567;SDS011;10944;42.590;12.630;2023-02-01T06:36:02;10.70;;;5.87;;
21567;SDS011;10944;42.590;12.630;2023-02-01T06:38:31;11.03;;;5.90;;
21567;SDS011;10944;42.590;12.630;2023-02-01T06:41:00;10.60;;;5.80;;
21567;SDS011;10944;42.590;12.630;2023-02-01T06:43:26;11.50;;;5.37;;
21567;SDS011;10944;42.590;12.630;2023-02-01T06:45:53;12.10;;;5.50;;
21567;SDS011;10944;42.590;12.630;2023-02-01T06:48:19;10.67;;;5.27;;
21567;SDS011;10944;42.590;12.630;2023-02-01T06:50:44;11.80;;;5.80;;
21567;SDS011;10944;42.590;12.630;2023-02-01T06:53:10;9.03;;;5.20;;
21567;SDS011;10944;42.590;12.630;2023-02-01T06:55:36;13.40;;;6.00;;
21567;SDS011;10944;42.590;12.630;2023-02-01T06:58:01;11.83;;;5.97;;
21567;SDS011;10944;42.590;12.630;2023-02-01T07:00:27;10.43;;;5.83;;
21567;SDS011;10944;42.590;12.630;2023-02-01T07:02:53;12.53;;;6.77;;
21567;SDS011;10944;42.590;12.630;2023-02-01T07:05:20;15.20;;;8.10;;
21567;SDS011;10944;42.590;12.630;2023-02-01T07:07:46;15.27;;;8.77;;
21567;SDS011;10944;42.590;12.630;2023-02-01T07:10:12;15.53;;;8.33;;
21567;SDS011;10944;42.590;12.630;2023-02-01T07:12:38;20.13;;;9.70;;
21567;SDS011;10944;42.590;12.630;2023-02-01T07:15:04;18.67;;;8.97;;
21567;SDS011;10944;42.590;12.630;2023-02-01T07:17:30;16.30;;;9.43;;
21567;SDS011;10944;42.590;12.630;2023-02-01T07:19:56;20.20;;;10.00;;
21567;SDS011;10944;42.590;12.630;2023-02-01T07:22:23;19.47;;;10.70;;
21567;SDS011;10944;42.590;12.630;2023-02-01T07:24:49;17.40;;;9.97;;
21567;SDS011;10944;42.590;12.630;2023-02-01T07:27:15;17.77;;;10.00;;
21567;SDS011;10944;42.590;12.630;2023-02-01T07:29:40;20.23;;;10.43;;
21567;SDS011;10944;42.590;12.630;2023-02-01T07:32:06;21.17;;;9.80;;
21567;SDS011;10944;42.590;12.630;2023-02-01T07:34:31;21.23;;;10.87;;
21567;SDS011;10944;42.590;12.630;2023-02-01T07:36:58;20.43;;;10.17;;
21567;SDS011;10944;42.590;12.630;2023-02-01T07:39:24;17.77;;;10.13;;
21567;SDS011;10944;42.590;12.630;2023-02-01T07:41:49;20.50;;;10.17;;
21567;SDS011;10944;42.590;12.630;2023-02-01T07:44:15;20.47;;;10.87;;
21567;SDS011;10944;42.590;12.630;2023-02-01T07:46:43;18.47;;;11.60;;
21567;SDS011;10944;42.590;12.630;2023-02-01T07:49:09;22.43;;;12.90;;
21567;SDS011;10944;42.590;12.630;2023-02-01T07:51:35;29.00;;;14.93;;
21567;SDS011;10944;42.590;12.630;2023-02-01T07:54:00;33.10;;;17.03;;
21567;SDS011;10944;42.590;12.630;2023-02-01T07:56:26;38.30;;;18.80;;
21567;SDS011;10944;42.590;12.630;2023-02-01T07:58:53;32.03;;;17.00;;
21567;SDS011;10944;42.590;12.630;2023-02-01T08:01:25;27.20;;;15.97;;
21567;SDS011;10944;42.590;12.630;2023-02-01T08:03:55;27.87;;;14.27;;
21567;SDS011;10944;42.590;12.630;2023-02-01T08:06:24;27.87;;;14.13;;
21567;SDS011;10944;42.590;12.630;2023-02-01T08:08:51;24.00;;;13.70;;
21567;SDS011;10944;42.590;12.630;2023-02-01T08:11:18;21.27;;;11.63;;
21567;SDS011;10944;42.590;12.630;2023-02-01T08:13:45;27.03;;;13.00;;
21567;SDS011;10944;42.590;12.630;2023-02-01T08:16:11;21.87;;;12.37;;
21567;SDS011;10944;42.590;12.630;2023-02-01T08:18:39;28.43;;;13.10;;
21567;SDS011;10944;42.590;12.630;2023-02-01T08:23:38;40.13;;;20.60;;
21567;SDS011;10944;42.590;12.630;2023-02-01T08:28:36;38.53;;;22.13;;
21567;SDS011;10944;42.590;12.630;2023-02-01T08:31:04;35.03;;;19.87;;
21567;SDS011;10944;42.590;12.630;2023-02-01T08:33:34;33.93;;;19.30;;
21567;SDS011;10944;42.590;12.630;2023-02-01T08:36:02;30.13;;;18.53;;
21567;SDS011;10944;42.590;12.630;2023-02-01T08:38:29;34.43;;;19.30;;
21567;SDS011;10944;42.590;12.630;2023-02-01T08:40:55;34.57;;;19.67;;
21567;SDS011;10944;42.590;12.630;2023-02-01T08:43:21;32.60;;;19.17;;
21567;SDS011;10944;42.590;12.630;2023-02-01T08:45:46;27.20;;;16.37;;
21567;SDS011;10944;42.590;12.630;2023-02-01T08:48:12;32.30;;;17.80;;
21567;SDS011;10944;42.590;12.630;2023-02-01T08:50:38;29.13;;;17.77;;
21567;SDS011;10944;42.590;12.630;2023-02-01T08:53:04;31.33;;;16.93;;
21567;SDS011;10944;42.590;12.630;2023-02-01T08:55:29;29.43;;;17.47;;
21567;SDS011;10944;42.590;12.630;2023-02-01T08:57:55;32.63;;;18.10;;
21567;SDS011;10944;42.590;12.630;2023-02-01T09:00:21;32.47;;;19.30;;
21567;SDS011;10944;42.590;12.630;2023-02-01T09:02:47;38.43;;;20.47;;
21567;SDS011;10944;42.590;12.630;2023-02-01T09:05:13;33.87;;;20.30;;
21567;SDS011;10944;42.590;12.630;2023-02-01T09:07:41;33.10;;;19.27;;
21567;SDS011;10944;42.590;12.630;2023-02-01T09:10:07;35.53;;;21.37;;
21567;SDS011;10944;42.590;12.630;2023-02-01T09:12:34;37.37;;;20.23;;
21567;SDS011;10944;42.590;12.630;2023-02-01T09:15:00;32.40;;;18.90;;
21567;SDS011;10944;42.590;12.630;2023-02-01T09:17:26;33.50;;;18.37;;
21567;SDS011;10944;42.590;12.630;2023-02-01T09:19:53;33.27;;;17.93;;
21567;SDS011;10944;42.590;12.630;2023-02-01T09:22:19;32.10;;;18.67;;
21567;SDS011;10944;42.590;12.630;2023-02-01T09:24:45;36.10;;;19.67;;
21567;SDS011;10944;42.590;12.630;2023-02-01T09:27:11;29.03;;;18.67;;
21567;SDS011;10944;42.590;12.630;2023-02-01T09:29:36;32.03;;;18.43;;
21567;SDS011;10944;42.590;12.630;2023-02-01T09:32:02;33.93;;;18.87;;
21567;SDS011;10944;42.590;12.630;2023-02-01T09:34:28;32.77;;;18.37;;
21567;SDS011;10944;42.590;12.630;2023-02-01T09:36:54;61.37;;;34.77;;
21567;SDS011;10944;42.590;12.630;2023-02-01T09:39:19;41.13;;;24.37;;
21567;SDS011;10944;42.590;12.630;2023-02-01T09:41:51;35.63;;;20.97;;
21567;SDS011;10944;42.590;12.630;2023-02-01T09:47:19;36.97;;;19.90;;
21567;SDS011;10944;42.590;12.630;2023-02-01T09:52:36;44.47;;;25.43;;
21567;SDS011;10944;42.590;12.630;2023-02-01T09:55:13;42.10;;;23.40;;
21567;SDS011;10944;42.590;12.630;2023-02-01T09:57:48;44.93;;;24.73;;
21567;SDS011;10944;42.590;12.630;2023-02-01T10:00:27;41.13;;;24.37;;
21567;SDS011;10944;42.590;12.630;2023-02-01T10:02:58;100.40;;;50.40;;
21567;SDS011;10944;42.590;12.630;2023-02-01T10:05:33;76.63;;;43.83;;
21567;SDS011;10944;42.590;12.630;2023-02-01T10:10:56;61.90;;;35.33;;
21567;SDS011;10944;42.590;12.630;2023-02-01T10:16:34;43.70;;;26.30;;
21567;SDS011;10944;42.590;12.630;2023-02-01T10:22:23;47.43;;;28.40;;
21567;SDS011;10944;42.590;12.630;2023-02-01T10:27:38;40.63;;;23.93;;
21567;SDS011;10944;42.590;12.630;2023-02-01T10:33:12;47.40;;;25.77;;
21567;SDS011;10944;42.590;12.630;2023-02-01T10:35:49;40.30;;;22.67;;
21567;SDS011;10944;42.590;12.630;2023-02-01T10:38:27;44.57;;;23.70;;
21567;SDS011;10944;42.590;12.630;2023-02-01T10:40:55;33.73;;;19.40;;
21567;SDS011;10944;42.590;12.630;2023-02-01T10:43:27;29.63;;;17.20;;
21567;SDS011;10944;42.590;12.630;2023-02-01T10:45:53;25.97;;;15.63;;
21567;SDS011;10944;42.590;12.630;2023-02-01T10:48:19;58.33;;;32.43;;
21567;SDS011;10944;42.590;12.630;2023-02-01T10:53:52;55.03;;;31.27;;
21567;SDS011;10944;42.590;12.630;2023-02-01T10:56:26;40.90;;;21.60;;
21567;SDS011;10944;42.590;12.630;2023-02-01T10:59:00;33.37;;;20.83;;
21567;SDS011;10944;42.590;12.630;2023-02-01T11:01:31;37.87;;;20.63;;
21567;SDS011;10944;42.590;12.630;2023-02-01T11:04:02;47.63;;;25.43;;
21567;SDS011;10944;42.590;12.630;2023-02-01T11:06:31;57.03;;;32.00;;
21567;SDS011;10944;42.590;12.630;2023-02-01T11:11:31;119.47;;;58.80;;
21567;SDS011;10944;42.590;12.630;2023-02-01T11:13:58;67.20;;;38.57;;
21567;SDS011;10944;42.590;12.630;2023-02-01T11:16:29;41.93;;;24.03;;
21567;SDS011;10944;42.590;12.630;2023-02-01T11:18:58;44.17;;;24.03;;
21567;SDS011;10944;42.590;12.630;2023-02-01T11:21:24;34.67;;;21.33;;
21567;SDS011;10944;42.590;12.630;2023-02-01T11:23:51;38.10;;;23.30;;
21567;SDS011;10944;42.590;12.630;2023-02-01T11:26:26;37.13;;;21.40;;
21567;SDS011;10944;42.590;12.630;2023-02-01T11:28:57;35.70;;;20.30;;
21567;SDS011;10944;42.590;12.630;2023-02-01T11:31:26;35.70;;;20.03;;
21567;SDS011;10944;42.590;12.630;2023-02-01T11:34:00;32.07;;;19.00;;
21567;SDS011;10944;42.590;12.630;2023-02-01T11:36:36;37.83;;;19.93;;
21567;SDS011;10944;42.590;12.630;2023-02-01T11:39:07;36.53;;;19.27;;
21567;SDS011;10944;42.590;12.630;2023-02-01T11:44:38;36.72;;;20.58;;
21567;SDS011;10944;42.590;12.630;2023-02-01T11:47:18;30.38;;;17.77;;
21567;SDS011;10944;42.590;12.630;2023-02-01T11:49:51;29.40;;;16.92;;
21567;SDS011;10944;42.590;12.630;2023-02-01T11:52:32;36.83;;;19.27;;
21567;SDS011;10944;42.590;12.630;2023-02-01T12:24:58;16.80;;;8.90;;
21567;SDS011;10944;42.590;12.630;2023-02-01T12:41:50;16.85;;;8.05;;
21567;SDS011;10944;42.590;12.630;2023-02-01T12:44:28;15.95;;;7.82;;
21567;SDS011;10944;42.590;12.630;2023-02-01T12:47:06;14.95;;;7.90;;
21567;SDS011;10944;42.590;12.630;2023-02-01T12:50:12;12.40;;;7.15;;
21567;SDS011;10944;42.590;12.630;2023-02-01T12:52:45;13.73;;;7.50;;
21567;SDS011;10944;42.590;12.630;2023-02-01T12:55:22;11.70;;;6.75;;
21567;SDS011;10944;42.590;12.630;2023-02-01T13:00:54;14.98;;;6.95;;
21567;SDS011;10944;42.590;12.630;2023-02-01T13:06:04;15.02;;;7.38;;
21567;SDS011;10944;42.590;12.630;2023-02-01T13:09:39;15.20;;;6.93;;
21567;SDS011;10944;42.590;12.630;2023-02-01T13:11:42;12.13;;;6.97;;
21567;SDS011;10944;42.590;12.630;2023-02-01T13:17:01;13.13;;;7.60;;
21567;SDS011;10944;42.590;12.630;2023-02-01T13:25:04;13.70;;;6.63;;
21567;SDS011;10944;42.590;12.630;2023-02-01T13:27:43;14.13;;;6.82;;
21567;SDS011;10944;42.590;12.630;2023-02-01T13:30:20;12.05;;;5.82;;
21567;SDS011;10944;42.590;12.630;2023-02-01T13:33:27;10.45;;;6.45;;
21567;SDS011;10944;42.590;12.630;2023-02-01T13:41:31;11.73;;;5.78;;
21567;SDS011;10944;42.590;12.630;2023-02-01T13:44:16;12.45;;;5.47;;
21567;SDS011;10944;42.590;12.630;2023-02-01T13:46:49;12.05;;;5.20;;
21567;SDS011;10944;42.590;12.630;2023-02-01T13:49:20;10.90;;;5.72;;
21567;SDS011;10944;42.590;12.630;2023-02-01T13:51:53;10.48;;;5.50;;
21567;SDS011;10944;42.590;12.630;2023-02-01T13:54:31;10.88;;;4.47;;
21567;SDS011;10944;42.590;12.630;2023-02-01T13:57:06;11.32;;;4.80;;
21567;SDS011;10944;42.590;12.630;2023-02-01T14:13:29;8.02;;;2.88;;
21567;SDS011;10944;42.590;12.630;2023-02-01T14:29:09;9.65;;;4.47;;
21567;SDS011;10944;42.590;12.630;2023-02-01T14:34:48;10.95;;;5.30;;
21567;SDS011;10944;42.590;12.630;2023-02-01T15:01:01;12.48;;;6.82;;
21567;SDS011;10944;42.590;12.630;2023-02-01T15:05:59;14.57;;;6.68;;
21567;SDS011;10944;42.590;12.630;2023-02-01T15:08:31;14.32;;;6.85;;
21567;SDS011;10944;42.590;12.630;2023-02-01T15:11:01;13.70;;;6.88;;
21567;SDS011;10944;42.590;12.630;2023-02-01T15:13:31;16.52;;;8.20;;
21567;SDS011;10944;42.590;12.630;2023-02-01T15:18:26;15.18;;;7.00;;
21567;SDS011;10944;42.590;12.630;2023-02-01T15:20:58;14.63;;;6.88;;
21567;SDS011;10944;42.590;12.630;2023-02-01T15:23:25;15.73;;;7.50;;
21567;SDS011;10944;42.590;12.630;2023-02-01T15:25:52;15.00;;;7.50;;
21567;SDS011;10944;42.590;12.630;2023-02-01T15:28:18;16.73;;;8.13;;
21567;SDS011;10944;42.590;12.630;2023-02-01T15:30:57;17.60;;;8.02;;
21567;SDS011;10944;42.590;12.630;2023-02-01T15:33:25;17.10;;;8.75;;
21567;SDS011;10944;42.590;12.630;2023-02-01T15:35:53;17.33;;;8.50;;
21567;SDS011;10944;42.590;12.630;2023-02-01T15:38:32;17.77;;;7.82;;
21567;SDS011;10944;42.590;12.630;2023-02-01T15:41:15;17.42;;;7.85;;
21567;SDS011;10944;42.590;12.630;2023-02-01T15:49:01;16.02;;;7.35;;
21567;SDS011;10944;42.590;12.630;2023-02-01T15:51:28;15.35;;;7.70;;
21567;SDS011;10944;42.590;12.630;2023-02-01T15:53:59;16.95;;;7.93;;
21567;SDS011;10944;42.590;12.630;2023-02-01T15:56:33;16.33;;;8.25;;
21567;SDS011;10944;42.590;12.630;2023-02-01T15:59:01;17.27;;;9.18;;
21567;SDS011;10944;42.590;12.630;2023-02-01T16:01:29;24.50;;;9.95;;
21567;SDS011;10944;42.590;12.630;2023-02-01T16:04:10;17.80;;;9.90;;
21567;SDS011;10944;42.590;12.630;2023-02-01T16:06:44;18.10;;;8.53;;
21567;SDS011;10944;42.590;12.630;2023-02-01T16:09:24;15.43;;;7.63;;
21567;SDS011;10944;42.590;12.630;2023-02-01T16:12:01;16.13;;;7.57;;
21567;SDS011;10944;42.590;12.630;2023-02-01T16:14:28;15.20;;;7.47;;
21567;SDS011;10944;42.590;12.630;2023-02-01T16:16:55;15.00;;;7.40;;
21567;SDS011;10944;42.590;12.630;2023-02-01T16:19:22;14.80;;;6.82;;
21567;SDS011;10944;42.590;12.630;2023-02-01T16:21:53;16.17;;;7.97;;
21567;SDS011;10944;42.590;12.630;2023-02-01T16:24:19;14.48;;;7.40;;
21567;SDS011;10944;42.590;12.630;2023-02-01T16:26:47;13.93;;;7.27;;
21567;SDS011;10944;42.590;12.630;2023-02-01T16:29:12;13.30;;;6.30;;
21567;SDS011;10944;42.590;12.630;2023-02-01T16:31:40;14.77;;;6.73;;
21567;SDS011;10944;42.590;12.630;2023-02-01T16:34:06;14.05;;;7.13;;
21567;SDS011;10944;42.590;12.630;2023-02-01T16:36:39;17.10;;;7.78;;
21567;SDS011;10944;42.590;12.630;2023-02-01T16:39:05;18.03;;;8.30;;
21567;SDS011;10944;42.590;12.630;2023-02-01T16:41:33;18.27;;;9.20;;
21567;SDS011;10944;42.590;12.630;2023-02-01T16:43:58;15.00;;;8.55;;
21567;SDS011;10944;42.590;12.630;2023-02-01T16:46:25;16.93;;;8.47;;
21567;SDS011;10944;42.590;12.630;2023-02-01T16:48:55;16.87;;;8.97;;
21567;SDS011;10944;42.590;12.630;2023-02-01T16:51:23;17.63;;;8.60;;
21567;SDS011;10944;42.590;12.630;2023-02-01T16:53:51;16.02;;;7.95;;
21567;SDS011;10944;42.590;12.630;2023-02-01T16:56:18;16.88;;;7.63;;
21567;SDS011;10944;42.590;12.630;2023-02-01T16:58:46;15.48;;;7.50;;
21567;SDS011;10944;42.590;12.630;2023-02-01T17:01:16;13.93;;;7.70;;
21567;SDS011;10944;42.590;12.630;2023-02-01T17:03:43;15.05;;;7.78;;
21567;SDS011;10944;42.590;12.630;2023-02-01T17:06:10;20.65;;;9.35;;
21567;SDS011;10944;42.590;12.630;2023-02-01T17:08:39;22.17;;;11.17;;
21567;SDS011;10944;42.590;12.630;2023-02-01T17:11:07;21.67;;;12.15;;
21567;SDS011;10944;42.590;12.630;2023-02-01T17:13:35;30.60;;;13.17;;
21567;SDS011;10944;42.590;12.630;2023-02-01T17:18:53;29.00;;;15.80;;
21567;SDS011;10944;42.590;12.630;2023-02-01T17:21:24;28.83;;;16.93;;
21567;SDS011;10944;42.590;12.630;2023-02-01T17:23:52;33.20;;;20.20;;
21567;SDS011;10944;42.590;12.630;2023-02-01T17:26:18;35.50;;;20.10;;
21567;SDS011;10944;42.590;12.630;2023-02-01T17:28:44;28.80;;;16.43;;
21567;SDS011;10944;42.590;12.630;2023-02-01T17:31:12;23.80;;;12.57;;
21567;SDS011;10944;42.590;12.630;2023-02-01T17:33:42;22.13;;;10.60;;
21567;SDS011;10944;42.590;12.630;2023-02-01T17:36:09;19.57;;;10.30;;
21567;SDS011;10944;42.590;12.630;2023-02-01T17:38:38;17.90;;;9.77;;
21567;SDS011;10944;42.590;12.630;2023-02-01T17:41:04;20.43;;;10.00;;
21567;SDS011;10944;42.590;12.630;2023-02-01T17:43:30;17.13;;;9.70;;
21567;SDS011;10944;42.590;12.630;2023-02-01T17:45:57;20.57;;;10.47;;
21567;SDS011;10944;42.590;12.630;2023-02-01T17:48:49;18.80;;;10.30;;
21567;SDS011;10944;42.590;12.630;2023-02-01T17:51:20;17.77;;;10.13;;
21567;SDS011;10944;42.590;12.630;2023-02-01T17:53:52;16.90;;;9.33;;
21567;SDS011;10944;42.590;12.630;2023-02-01T17:56:19;20.90;;;10.77;;
21567;SDS011;10944;42.590;12.630;2023-02-01T17:58:47;21.60;;;11.83;;
21567;SDS011;10944;42.590;12.630;2023-02-01T18:01:14;24.80;;;13.23;;